Terminal Aerodrome Forecast
Issued by NWS

Home | Current Version | Previous Version | Text Only | Print | Product List | Glossary On
Versions: 1 2 3 4 5 6 7 8 9 10 11 12 13 14 15 16 17 18 19
000
FTUS43 KMPX 300115 AAA
TAFRNH
TAF AMD
KRNH 300115Z 3001/3024 VRB04KT P6SM SKC
     FM301200 02006KT P6SM OVC015
     FM301500 02006KT P6SM BKN050=

USA.gov is the U.S. government's official web portal to all federal, state and local government web resources and services.